Time;durP1;ratioP1;P1;durP2;ratioP2;P2;SDS_P1;SDS_P2;PMS_P1;PMS_P2;Temp;Humidity;BMP_temperature;BMP_pressure;BME280_temperature;BME280_humidity;BME280_pressure;Samples;Min_cycle;Max_cycle;Signal;HPM_P1;HPM_P2
2023/04/13 00:00:23;;;;;;;6.82;1.60;;;;;;;5.18;100.00;99314.28;5110953;28;20112;-73
2023/04/13 00:02:52;;;;;;;1.73;1.33;;;;;;;5.16;100.00;99311.81;5110883;28;20032;-75
2023/04/13 00:05:19;;;;;;;3.60;1.67;;;;;;;5.12;100.00;99323.63;5110629;28;20051;-73
2023/04/13 00:07:44;;;;;;;7.75;1.40;;;;;;;5.07;100.00;99315.28;5110540;28;20528;-73
2023/04/13 00:10:10;;;;;;;6.63;1.60;;;;;;;5.00;100.00;99306.28;5110386;28;20123;-74
2023/04/13 00:12:36;;;;;;;3.50;1.50;;;;;;;4.95;100.00;99306.69;5110523;28;20048;-74
2023/04/13 00:15:03;;;;;;;5.53;1.50;;;;;;;4.88;100.00;99306.44;5110637;28;20070;-74
2023/04/13 00:17:28;;;;;;;4.90;1.58;;;;;;;4.83;100.00;99308.66;5110964;28;20099;-74
2023/04/13 00:19:56;;;;;;;2.90;1.55;;;;;;;4.79;100.00;99307.25;5110412;28;20417;-75
2023/04/13 00:22:26;;;;;;;3.47;1.85;;;;;;;4.74;100.00;99312.13;5092169;28;20054;-74
2023/04/13 00:24:56;;;;;;;6.63;1.90;;;;;;;4.69;100.00;99314.34;5110372;28;20028;-74
2023/04/13 00:27:25;;;;;;;4.05;1.63;;;;;;;4.62;100.00;99321.13;5110947;28;20039;-73
2023/04/13 00:29:51;;;;;;;4.00;1.88;;;;;;;4.54;100.00;99320.03;5110627;28;20088;-74
2023/04/13 00:32:16;;;;;;;2.97;1.83;;;;;;;4.51;100.00;99322.94;5110414;28;20055;-75
2023/04/13 00:34:43;;;;;;;7.25;1.70;;;;;;;4.49;100.00;99335.38;5110887;28;20473;-76
2023/04/13 00:37:10;;;;;;;5.22;1.90;;;;;;;4.52;100.00;99335.13;5110842;28;20042;-74
2023/04/13 00:39:36;;;;;;;5.15;1.88;;;;;;;4.55;100.00;99344.56;5110303;28;20055;-74
2023/04/13 00:42:02;;;;;;;5.72;2.10;;;;;;;4.61;100.00;99351.06;5110479;28;20032;-74
2023/04/13 00:44:29;;;;;;;10.40;2.05;;;;;;;4.62;100.00;99364.13;5110269;28;20206;-74
2023/04/13 00:46:55;;;;;;;3.85;1.40;;;;;;;4.64;100.00;99377.16;5092106;28;20084;-74
2023/04/13 00:49:21;;;;;;;2.63;1.33;;;;;;;4.63;100.00;99372.84;5110618;28;20028;-75
2023/04/13 00:51:47;;;;;;;3.13;1.30;;;;;;;4.62;100.00;99376.47;5113944;28;20038;-74
2023/04/13 00:54:14;;;;;;;1.63;0.88;;;;;;;4.58;100.00;99373.25;5114592;28;20449;-74
2023/04/13 00:56:41;;;;;;;4.05;1.10;;;;;;;4.56;100.00;99375.19;5114280;28;20445;-75
2023/04/13 00:59:10;;;;;;;3.47;0.93;;;;;;;4.54;100.00;99369.25;5114515;28;20031;-74
2023/04/13 01:01:44;;;;;;;2.60;0.98;;;;;;;4.52;100.00;99382.56;5114216;28;20100;-74
2023/04/13 01:04:12;;;;;;;4.30;0.90;;;;;;;4.49;100.00;99387.25;5114359;28;20146;-74
2023/04/13 01:06:43;;;;;;;3.30;0.90;;;;;;;4.42;100.00;99389.59;5114612;28;20058;-74
2023/04/13 01:09:17;;;;;;;2.20;0.90;;;;;;;4.37;100.00;99389.16;5114586;28;20032;-74
2023/04/13 01:11:59;;;;;;;5.63;1.10;;;;;;;4.33;100.00;99399.13;5114407;28;20023;-74
2023/04/13 01:14:48;;;;;;;7.70;0.90;;;;;;;4.31;100.00;99401.06;5114407;28;20413;-73
2023/04/13 01:17:22;;;;;;;5.00;1.08;;;;;;;4.32;100.00;99401.91;5114509;28;20032;-74
2023/04/13 01:20:00;;;;;;;5.82;1.10;;;;;;;4.32;100.00;99408.00;5096149;28;20130;-75
2023/04/13 01:22:29;;;;;;;4.35;1.05;;;;;;;4.30;100.00;99411.72;5114363;28;20035;-74
2023/04/13 01:25:13;;;;;;;3.58;0.80;;;;;;;4.31;100.00;99416.03;5114079;28;20032;-73
2023/04/13 01:27:49;;;;;;;9.52;1.25;;;;;;;4.31;100.00;99424.75;5113835;28;20027;-75
2023/04/13 01:30:20;;;;;;;8.15;1.42;;;;;;;4.33;100.00;99427.25;5113735;28;20023;-75
2023/04/13 01:32:47;;;;;;;13.10;1.65;;;;;;;4.32;100.00;99429.06;5113953;28;20066;-75
2023/04/13 01:35:13;;;;;;;6.25;1.23;;;;;;;4.31;100.00;99431.81;5113676;28;20068;-74
2023/04/13 01:37:41;;;;;;;8.80;1.30;;;;;;;4.27;100.00;99433.91;5095817;28;20076;-75
2023/04/13 01:40:10;;;;;;;10.82;1.52;;;;;;;4.20;100.00;99445.94;5114343;28;20084;-75
2023/04/13 01:42:36;;;;;;;2.58;1.00;;;;;;;4.14;100.00;99449.91;5114198;28;20028;-74
2023/04/13 01:45:04;;;;;;;5.78;1.10;;;;;;;4.12;100.00;99446.59;5113341;28;20389;-74
2023/04/13 01:47:33;;;;;;;6.57;1.52;;;;;;;4.10;100.00;99452.94;5113926;28;20023;-74
2023/04/13 01:50:07;;;;;;;5.97;1.33;;;;;;;4.01;100.00;99458.00;5114308;28;20027;-75
2023/04/13 01:52:34;;;;;;;9.88;2.17;;;;;;;3.93;100.00;99457.84;5113827;28;20413;-74
2023/04/13 01:55:01;;;;;;;7.43;1.40;;;;;;;3.89;100.00;99464.31;5094945;28;20318;-74
2023/04/13 01:57:29;;;;;;;14.90;2.17;;;;;;;3.78;100.00;99459.16;5113381;28;20038;-73
2023/04/13 01:59:55;;;;;;;3.80;2.00;;;;;;;3.71;100.00;99466.72;5113136;28;20032;-73
2023/04/13 02:02:21;;;;;;;8.90;1.40;;;;;;;3.63;100.00;99475.25;5112113;28;20028;-73
2023/04/13 02:04:47;;;;;;;9.48;1.35;;;;;;;3.59;100.00;99467.75;5112777;28;20530;-75
2023/04/13 02:07:12;;;;;;;6.07;1.30;;;;;;;3.60;100.00;99469.41;5113442;28;20128;-73
2023/04/13 02:09:38;;;;;;;4.07;1.08;;;;;;;3.69;100.00;99479.19;5113168;28;20382;-74
2023/04/13 02:12:03;;;;;;;7.35;1.20;;;;;;;3.75;100.00;99480.44;5112861;28;20032;-74
2023/04/13 02:14:29;;;;;;;8.25;1.25;;;;;;;3.84;100.00;99479.69;5113180;28;20031;-72
2023/04/13 02:16:55;;;;;;;5.85;1.02;;;;;;;3.95;100.00;99484.03;5077366;28;20476;-74
2023/04/13 02:19:20;;;;;;;7.00;1.20;;;;;;;4.00;100.00;99484.47;5112994;28;20073;-73
2023/04/13 02:21:46;;;;;;;12.52;1.83;;;;;;;4.03;100.00;99489.47;5112733;28;20481;-72
2023/04/13 02:24:13;;;;;;;11.45;1.58;;;;;;;4.01;100.00;99489.59;5112496;28;20028;-73
2023/04/13 02:26:39;;;;;;;4.30;1.25;;;;;;;4.05;100.00;99491.03;5113436;28;20121;-73
2023/04/13 02:34:29;;;;;;;7.35;1.23;;;;;;;4.14;100.00;99505.19;5498808;23;20057;-73
2023/04/13 02:36:55;;;;;;;11.52;1.80;;;;;;;4.30;100.00;99503.88;5032179;28;20041;-74
2023/04/13 02:39:20;;;;;;;6.60;1.33;;;;;;;4.37;100.00;99503.25;5032056;28;20034;-74
2023/04/13 02:41:46;;;;;;;6.18;1.27;;;;;;;4.45;100.00;99504.38;5032395;28;20037;-74
2023/04/13 02:44:11;;;;;;;9.95;1.48;;;;;;;4.51;100.00;99511.75;5030601;28;20040;-73
2023/04/13 02:46:37;;;;;;;3.38;1.13;;;;;;;4.58;100.00;99512.88;5031726;28;20026;-74
2023/04/13 02:49:02;;;;;;;8.27;1.52;;;;;;;4.69;100.00;99520.69;5031825;28;20497;-74
2023/04/13 02:51:27;;;;;;;10.73;1.50;;;;;;;4.73;100.00;99518.63;5031915;28;20494;-74
2023/04/13 02:53:54;;;;;;;9.82;1.30;;;;;;;4.81;100.00;99529.34;5031614;28;20087;-73
2023/04/13 02:56:21;;;;;;;7.22;1.27;;;;;;;4.86;100.00;99527.13;5032066;28;20446;-73
2023/04/13 02:58:47;;;;;;;4.00;1.30;;;;;;;4.95;100.00;99528.94;5031465;28;20124;-73
2023/04/13 03:01:12;;;;;;;9.98;1.60;;;;;;;4.98;100.00;99529.66;5030465;28;20163;-73
2023/04/13 03:03:40;;;;;;;8.75;1.45;;;;;;;5.02;100.00;99536.34;5031782;28;20048;-73
2023/04/13 03:06:06;;;;;;;9.23;1.63;;;;;;;5.07;100.00;99548.13;5031301;28;20057;-74
2023/04/13 03:08:31;;;;;;;6.65;1.38;;;;;;;5.12;100.00;99553.03;5030076;28;20491;-74
2023/04/13 03:10:57;;;;;;;10.73;2.10;;;;;;;5.09;100.00;99550.63;5031434;28;20037;-73
2023/04/13 03:13:22;;;;;;;13.75;2.55;;;;;;;5.08;100.00;99555.06;5031197;28;20045;-73
2023/04/13 03:15:47;;;;;;;12.48;1.50;;;;;;;5.08;100.00;99554.25;5031182;28;20029;-73
2023/04/13 03:18:13;;;;;;;8.43;1.90;;;;;;;5.05;100.00;99554.53;5031425;28;20464;-73
2023/04/13 03:20:38;;;;;;;10.43;1.83;;;;;;;5.01;100.00;99563.66;5031044;28;20034;-73
2023/04/13 03:23:04;;;;;;;8.50;2.15;;;;;;;4.99;100.00;99565.59;5029523;28;20057;-73
2023/04/13 03:25:30;;;;;;;12.05;2.03;;;;;;;4.97;100.00;99572.81;5031048;28;20051;-73
2023/04/13 03:27:55;;;;;;;12.65;1.88;;;;;;;5.02;100.00;99575.88;5031030;28;20108;-73
2023/04/13 03:30:21;;;;;;;6.85;1.85;;;;;;;5.07;100.00;99577.13;5030977;28;20470;-73
2023/04/13 03:32:46;;;;;;;14.10;1.95;;;;;;;5.17;100.00;99574.53;5029987;28;20458;-72
2023/04/13 03:35:11;;;;;;;11.88;2.00;;;;;;;5.20;100.00;99578.72;5031345;28;20053;-73
2023/04/13 03:37:41;;;;;;;9.52;2.00;;;;;;;5.23;100.00;99589.81;5030850;28;20029;-73
2023/04/13 03:40:10;;;;;;;8.05;1.92;;;;;;;5.28;100.00;99589.41;5030982;28;20501;-72
2023/04/13 03:42:36;;;;;;;17.13;2.30;;;;;;;5.33;100.00;99596.91;5030595;28;20029;-73
2023/04/13 03:45:02;;;;;;;6.90;2.03;;;;;;;5.36;100.00;99602.75;5030772;28;20033;-73
2023/04/13 03:47:28;;;;;;;12.60;2.15;;;;;;;5.40;100.00;99605.94;5030831;28;20057;-72
2023/04/13 03:49:53;;;;;;;12.02;1.60;;;;;;;5.37;100.00;99601.75;5030661;28;20112;-72
2023/04/13 03:52:19;;;;;;;7.18;1.75;;;;;;;5.39;100.00;99614.81;5030844;28;20064;-73
2023/04/13 03:54:44;;;;;;;6.30;1.85;;;;;;;5.44;100.00;99612.63;5030912;28;20057;-73
2023/04/13 03:57:10;;;;;;;15.75;2.05;;;;;;;5.47;100.00;99605.25;5030409;28;20427;-73
2023/04/13 03:59:35;;;;;;;9.23;1.67;;;;;;;5.50;100.00;99611.25;5030385;28;20034;-72
2023/04/13 04:02:01;;;;;;;15.80;2.08;;;;;;;5.46;100.00;99610.66;5028687;28;20056;-73
2023/04/13 04:04:27;;;;;;;7.82;1.50;;;;;;;5.41;100.00;99620.81;5030264;28;20087;-73
2023/04/13 04:06:52;;;;;;;6.47;1.52;;;;;;;5.40;100.00;99619.97;5030400;28;20088;-73
2023/04/13 04:09:18;;;;;;;7.25;1.30;;;;;;;5.42;100.00;99617.19;5030109;28;20041;-73
2023/04/13 04:11:43;;;;;;;5.85;1.20;;;;;;;5.35;100.00;99613.44;5030189;28;20471;-74
2023/04/13 04:14:09;;;;;;;9.52;2.08;;;;;;;5.29;100.00;99623.53;5030565;28;20060;-73
2023/04/13 04:16:34;;;;;;;5.28;1.30;;;;;;;5.32;100.00;99616.34;5028876;28;20136;-74
2023/04/13 04:19:00;;;;;;;7.22;1.70;;;;;;;5.37;100.00;99606.22;5030494;28;20124;-72
2023/04/13 04:21:32;;;;;;;9.50;1.65;;;;;;;5.35;100.00;99602.91;5030810;28;20038;-73
2023/04/13 04:23:59;;;;;;;10.00;1.50;;;;;;;5.32;100.00;99613.72;5030591;28;20427;-72
2023/04/13 04:26:25;;;;;;;8.65;2.00;;;;;;;5.24;100.00;99611.72;5033338;28;20492;-72
2023/04/13 04:28:50;;;;;;;2.88;1.27;;;;;;;5.24;100.00;99622.28;5034673;28;20112;-72
2023/04/13 04:31:16;;;;;;;8.75;1.50;;;;;;;5.27;100.00;99624.66;5034330;28;20029;-73
2023/04/13 04:33:43;;;;;;;9.45;1.98;;;;;;;5.34;100.00;99630.22;5034764;28;20153;-73
2023/04/13 04:36:12;;;;;;;6.03;1.42;;;;;;;5.42;100.00;99628.59;5034620;28;20356;-72
2023/04/13 04:38:38;;;;;;;6.32;1.40;;;;;;;5.56;100.00;99632.63;5033844;28;20085;-72
2023/04/13 04:41:04;;;;;;;7.43;1.52;;;;;;;5.64;100.00;99635.44;5034176;28;20108;-72
2023/04/13 04:43:29;;;;;;;7.13;1.30;;;;;;;5.69;100.00;99642.94;5034228;28;20109;-72
2023/04/13 04:45:58;;;;;;;10.80;1.98;;;;;;;5.72;100.00;99647.94;5033826;28;20052;-72
2023/04/13 04:48:30;;;;;;;9.55;1.90;;;;;;;5.69;100.00;99658.78;5032983;28;20033;-72
2023/04/13 04:50:56;;;;;;;3.38;1.33;;;;;;;5.54;100.00;99654.84;5033914;28;20041;-73
2023/04/13 04:53:22;;;;;;;3.25;1.10;;;;;;;5.40;100.00;99666.63;5033781;28;20422;-72
2023/04/13 04:55:48;;;;;;;8.07;1.80;;;;;;;5.29;100.00;99660.47;5034127;28;20053;-71
2023/04/13 04:58:13;;;;;;;5.40;1.25;;;;;;;5.25;100.00;99666.97;5034101;28;20386;-72
2023/04/13 05:00:39;;;;;;;9.43;1.30;;;;;;;5.25;100.00;99666.97;5032733;28;20365;-73
2023/04/13 05:03:06;;;;;;;6.05;1.50;;;;;;;5.25;100.00;99672.25;5032423;28;20362;-72
2023/04/13 05:05:32;;;;;;;7.57;1.23;;;;;;;5.23;100.00;99670.75;5033716;28;20116;-72
2023/04/13 05:07:58;;;;;;;6.85;1.23;;;;;;;5.24;100.00;99682.94;5033784;28;20108;-73
2023/04/13 05:10:25;;;;;;;6.35;1.40;;;;;;;5.27;100.00;99680.88;5033900;28;20048;-72
2023/04/13 05:12:51;;;;;;;12.43;1.63;;;;;;;5.30;100.00;99683.25;5033364;28;20069;-73
2023/04/13 05:15:16;;;;;;;6.40;1.50;;;;;;;5.36;100.00;99681.03;5033229;28;20060;-72
2023/04/13 05:17:45;;;;;;;8.82;1.58;;;;;;;5.37;100.00;99691.44;5032059;28;20494;-72
2023/04/13 05:20:12;;;;;;;16.92;1.70;;;;;;;5.36;100.00;99700.34;5033596;28;20029;-72
2023/04/13 05:22:38;;;;;;;8.18;1.20;;;;;;;5.39;100.00;99684.25;5031779;28;20403;-73
2023/04/13 05:25:05;;;;;;;8.65;1.45;;;;;;;5.43;100.00;99684.81;5033327;28;20120;-72
2023/04/13 05:27:31;;;;;;;3.70;1.05;;;;;;;5.50;100.00;99683.31;5033259;28;20034;-73
2023/04/13 05:29:56;;;;;;;10.20;1.30;;;;;;;5.55;100.00;99689.00;5032014;28;20522;-72
2023/04/13 05:32:21;;;;;;;7.25;1.73;;;;;;;5.60;100.00;99710.56;5033431;28;20033;-72
2023/04/13 05:34:47;;;;;;;11.73;1.83;;;;;;;5.67;100.00;99705.56;5031103;28;20506;-74
2023/04/13 05:37:14;;;;;;;9.13;2.00;;;;;;;5.79;100.00;99701.00;5032599;28;20056;-72
2023/04/13 05:39:39;;;;;;;13.32;2.08;;;;;;;5.91;100.00;99713.16;5032013;28;20355;-72
2023/04/13 05:42:05;;;;;;;10.75;2.13;;;;;;;6.02;100.00;99719.28;5033051;28;20033;-73
2023/04/13 05:44:30;;;;;;;13.20;2.15;;;;;;;6.15;100.00;99727.78;5033014;28;20128;-73
2023/04/13 05:46:56;;;;;;;11.30;1.90;;;;;;;6.20;100.00;99728.22;5032345;28;20084;-72
2023/04/13 05:49:21;;;;;;;11.32;2.00;;;;;;;6.30;100.00;99728.19;5032752;28;20029;-73
2023/04/13 05:51:47;;;;;;;10.27;1.95;;;;;;;6.38;100.00;99725.72;5031398;28;20037;-73
2023/04/13 05:54:12;;;;;;;8.18;1.60;;;;;;;6.47;100.00;99726.69;5032532;28;20041;-73
2023/04/13 05:56:39;;;;;;;11.13;2.38;;;;;;;6.52;100.00;99735.88;5032675;28;20403;-72
2023/04/13 05:59:04;;;;;;;11.43;2.40;;;;;;;6.47;100.00;99730.16;5032317;28;20117;-72
2023/04/13 06:01:30;;;;;;;9.63;2.05;;;;;;;6.49;100.00;99743.22;5032051;28;20121;-72
2023/04/13 06:03:56;;;;;;;10.80;2.03;;;;;;;6.59;100.00;99746.72;5032101;28;20112;-73
2023/04/13 06:06:22;;;;;;;18.00;3.00;;;;;;;6.77;100.00;99753.94;5032012;28;20041;-74
2023/04/13 06:08:48;;;;;;;13.10;1.90;;;;;;;6.91;100.00;99769.34;5032258;28;20439;-71
2023/04/13 06:11:14;;;;;;;14.70;2.63;;;;;;;6.98;100.00;99782.84;5032172;28;20099;-70
2023/04/13 06:13:40;;;;;;;6.90;1.85;;;;;;;6.86;100.00;99788.28;5030415;28;20106;-70
2023/04/13 06:16:07;;;;;;;5.38;1.35;;;;;;;6.63;100.00;99790.41;5031845;28;20030;-73
2023/04/13 06:18:32;;;;;;;11.20;1.70;;;;;;;6.43;100.00;99773.69;5031709;28;20030;-73
2023/04/13 06:20:58;;;;;;;10.27;1.88;;;;;;;6.30;100.00;99789.81;5031454;28;20159;-72
2023/04/13 06:23:24;;;;;;;14.75;2.03;;;;;;;6.34;100.00;99798.28;5031540;28;20104;-72
2023/04/13 06:25:49;;;;;;;14.40;2.30;;;;;;;6.43;100.00;99794.81;5031870;28;20053;-72
2023/04/13 06:28:15;;;;;;;10.55;1.90;;;;;;;6.57;100.00;99790.97;5031670;28;20033;-72
2023/04/13 06:30:41;;;;;;;15.30;2.53;;;;;;;6.66;100.00;99803.34;5031800;28;20037;-71
2023/04/13 06:33:06;;;;;;;12.05;2.28;;;;;;;6.57;100.00;99813.88;5031772;28;20064;-71
2023/04/13 06:35:35;;;;;;;22.13;2.25;;;;;;;6.23;100.00;99811.66;5032213;28;20103;-71
2023/04/13 06:38:01;;;;;;;7.55;1.67;;;;;;;6.04;100.00;99831.72;5031754;28;20124;-71
2023/04/13 06:40:27;;;;;;;12.07;2.00;;;;;;;5.85;100.00;99832.47;5032299;28;20041;-71
2023/04/13 06:42:53;;;;;;;21.40;2.42;;;;;;;5.81;100.00;99844.28;5031358;28;20103;-71
2023/04/13 06:45:20;;;;;;;18.52;2.88;;;;;;;5.87;100.00;99849.03;5031312;28;20408;-71
2023/04/13 06:47:46;;;;;;;16.92;2.38;;;;;;;5.98;100.00;99841.03;5031152;28;20037;-72
2023/04/13 06:50:15;;;;;;;13.82;2.60;;;;;;;6.10;100.00;99840.94;5032024;28;20026;-71
2023/04/13 06:52:42;;;;;;;18.48;3.22;;;;;;;6.25;100.00;99850.13;5031786;28;20041;-72
2023/04/13 06:55:08;;;;;;;15.68;2.85;;;;;;;6.40;100.00;99847.94;5031609;28;20037;-73
2023/04/13 06:57:33;;;;;;;22.38;2.80;;;;;;;6.64;100.00;99863.44;5031555;28;20091;-72
2023/04/13 06:59:59;;;;;;;19.25;3.03;;;;;;;6.80;100.00;99857.59;5031705;28;20394;-72
2023/04/13 07:02:25;;;;;;;21.13;2.70;;;;;;;6.95;100.00;99859.84;5031573;28;20033;-71
2023/04/13 07:04:51;;;;;;;11.93;2.60;;;;;;;7.11;100.00;99864.56;5030990;28;20328;-70
2023/04/13 07:07:16;;;;;;;14.30;2.50;;;;;;;7.21;100.00;99866.22;5031367;28;20025;-70
2023/04/13 07:09:42;;;;;;;16.67;3.28;;;;;;;7.34;100.00;99852.69;5031445;28;20076;-70
2023/04/13 07:12:07;;;;;;;16.38;2.90;;;;;;;7.45;100.00;99864.06;5031403;28;20102;-71
2023/04/13 07:14:34;;;;;;;18.20;3.00;;;;;;;7.45;100.00;99870.22;5031615;28;20072;-71
2023/04/13 07:17:00;;;;;;;14.70;3.17;;;;;;;7.36;100.00;99884.28;5031041;28;20120;-71
2023/04/13 07:19:26;;;;;;;21.55;3.63;;;;;;;7.42;100.00;99878.47;5031570;28;20146;-71
2023/04/13 07:21:51;;;;;;;21.30;3.55;;;;;;;7.56;100.00;99880.63;5031214;28;20057;-71
2023/04/13 07:24:17;;;;;;;15.02;2.53;;;;;;;7.64;100.00;99890.50;5030869;28;20139;-70
2023/04/13 07:26:43;;;;;;;15.90;2.92;;;;;;;7.66;100.00;99903.59;5031087;28;20179;-68
2023/04/13 07:29:12;;;;;;;19.23;2.90;;;;;;;7.65;100.00;99889.53;5030912;28;20079;-70
2023/04/13 07:31:38;;;;;;;15.77;2.45;;;;;;;7.71;100.00;99899.56;5030922;28;20040;-72
2023/04/13 07:34:04;;;;;;;20.35;2.63;;;;;;;7.81;100.00;99920.72;5030957;28;20109;-73
2023/04/13 07:36:30;;;;;;;17.67;2.63;;;;;;;7.75;100.00;99911.53;5031193;28;20045;-72
2023/04/13 07:38:56;;;;;;;17.20;3.67;;;;;;;7.68;100.00;99925.50;5030934;28;20072;-72
2023/04/13 07:41:23;;;;;;;17.65;2.88;;;;;;;7.75;100.00;99932.72;5031186;28;20057;-72
2023/04/13 07:43:49;;;;;;;20.13;2.90;;;;;;;7.74;100.00;99928.38;5029143;28;20035;-73
2023/04/13 07:46:14;;;;;;;12.80;2.90;;;;;;;7.80;100.00;99947.34;5029450;28;20045;-73
2023/04/13 07:48:40;;;;;;;16.65;2.22;;;;;;;7.81;100.00;99951.66;5030782;28;20033;-74
2023/04/13 07:51:15;;;;;;;12.15;1.75;;;;;;;7.84;100.00;99967.28;5029232;28;20026;-75
2023/04/13 07:53:40;;;;;;;13.18;2.53;;;;;;;7.79;100.00;99958.91;5031058;28;20068;-75
2023/04/13 07:56:06;;;;;;;20.80;3.67;;;;;;;7.86;100.00;99958.19;5030834;28;20033;-74
2023/04/13 07:58:31;;;;;;;17.98;2.80;;;;;;;7.81;100.00;99970.19;5030804;28;20037;-73
2023/04/13 08:00:56;;;;;;;18.90;2.40;;;;;;;7.65;100.00;99984.84;5030732;28;20030;-72
2023/04/13 08:03:22;;;;;;;14.02;2.67;;;;;;;7.60;100.00;99976.50;5028781;28;20439;-73
2023/04/13 08:05:47;;;;;;;20.23;3.10;;;;;;;7.57;100.00;99987.38;5030625;28;20036;-73
2023/04/13 08:08:12;;;;;;;13.52;2.55;;;;;;;7.54;100.00;99988.50;5030667;28;20034;-75
2023/04/13 08:10:38;;;;;;;14.18;3.00;;;;;;;7.55;100.00;99989.31;5030673;28;20516;-74
2023/04/13 08:13:03;;;;;;;9.48;2.85;;;;;;;7.59;100.00;99998.66;5028979;28;20060;-74
2023/04/13 08:15:29;;;;;;;13.20;3.03;;;;;;;7.58;100.00;100012.84;5030536;28;20190;-74
2023/04/13 08:17:54;;;;;;;16.02;2.58;;;;;;;7.64;100.00;100012.28;5030552;28;20196;-76
2023/04/13 08:20:20;;;;;;;14.93;2.20;;;;;;;7.71;100.00;100028.47;5030424;28;20052;-74
2023/04/13 08:22:45;;;;;;;15.77;2.15;;;;;;;7.79;100.00;100023.28;5030427;28;20041;-75
2023/04/13 08:25:10;;;;;;;11.98;3.30;;;;;;;7.87;100.00;100027.91;5030381;28;20053;-75
2023/04/13 08:27:36;;;;;;;13.13;2.60;;;;;;;8.13;100.00;100030.78;5028749;28;20474;-74
2023/04/13 08:30:04;;;;;;;10.95;2.78;;;;;;;8.52;100.00;100020.06;5030444;28;20034;-75
2023/04/13 08:32:29;;;;;;;18.17;2.55;;;;;;;8.75;100.00;100022.38;5030275;28;20049;-75
2023/04/13 08:34:55;;;;;;;12.10;2.15;;;;;;;8.85;100.00;100035.56;5030624;28;20073;-75
2023/04/13 08:37:20;;;;;;;16.23;2.35;;;;;;;9.12;100.00;100038.22;5030011;28;20395;-74
2023/04/13 08:39:47;;;;;;;11.15;2.78;;;;;;;9.43;100.00;100034.38;5030274;28;20181;-74
2023/04/13 08:42:13;;;;;;;17.55;2.33;;;;;;;9.62;100.00;100055.47;5030169;28;20037;-74
2023/04/13 08:44:39;;;;;;;22.58;2.75;;;;;;;9.54;100.00;100047.44;5029812;28;20470;-74
2023/04/13 08:47:04;;;;;;;21.67;2.58;;;;;;;9.55;100.00;100035.81;5012108;28;20037;-74
2023/04/13 08:49:31;;;;;;;11.50;2.00;;;;;;;9.79;100.00;100063.59;5029872;28;20041;-74
2023/04/13 08:51:58;;;;;;;16.02;2.88;;;;;;;10.34;100.00;100062.53;5030539;28;20116;-75
2023/04/13 08:54:27;;;;;;;16.95;2.42;;;;;;;10.83;100.00;100054.00;5030047;28;20375;-74
2023/04/13 08:56:54;;;;;;;14.43;2.63;;;;;;;10.55;100.00;100063.00;5030049;28;20132;-74
2023/04/13 08:59:21;;;;;;;10.52;2.10;;;;;;;11.06;100.00;100065.72;5029777;28;20120;-75
2023/04/13 09:01:47;;;;;;;13.55;2.33;;;;;;;11.43;100.00;100045.00;5028516;28;20455;-74
2023/04/13 09:04:16;;;;;;;13.77;2.25;;;;;;;11.84;100.00;100066.38;5029933;28;20029;-75
2023/04/13 09:06:44;;;;;;;9.57;2.28;;;;;;;12.55;93.24;100073.81;5030079;28;20089;-74
2023/04/13 09:09:14;;;;;;;14.18;2.50;;;;;;;12.28;89.58;100076.69;5029970;28;20037;-76
2023/04/13 09:11:41;;;;;;;15.60;2.78;;;;;;;12.47;92.16;100091.50;5031639;28;20025;-76
2023/04/13 09:14:07;;;;;;;10.15;2.40;;;;;;;13.22;82.92;100092.09;5033934;28;20044;-76
2023/04/13 09:16:40;;;;;;;12.32;2.08;;;;;;;13.54;75.67;100096.47;5033604;28;20030;-76
2023/04/13 09:19:07;;;;;;;8.73;1.88;;;;;;;14.21;66.01;100107.50;5033660;28;20029;-77
2023/04/13 09:21:37;;;;;;;10.65;2.05;;;;;;;14.90;65.79;100103.81;5033355;28;20088;-76
2023/04/13 09:24:04;;;;;;;10.43;2.28;;;;;;;14.69;61.09;100113.44;5033491;28;20068;-76
2023/04/13 09:26:50;;;;;;;7.35;1.85;;;;;;;14.07;63.52;100117.97;5033300;28;20037;-75
2023/04/13 09:29:17;;;;;;;12.85;2.40;;;;;;;13.25;77.14;100122.97;5032748;28;20061;-76
2023/04/13 09:31:44;;;;;;;12.88;2.45;;;;;;;12.43;80.27;100111.53;5033840;28;20036;-76
2023/04/13 09:34:10;;;;;;;15.40;2.78;;;;;;;13.07;83.25;100121.38;5031759;28;20057;-78
2023/04/13 09:36:36;;;;;;;11.65;2.45;;;;;;;13.29;74.93;100114.44;5033239;28;20366;-77
2023/04/13 09:39:02;;;;;;;17.83;2.58;;;;;;;13.55;76.64;100116.84;5033329;28;20136;-76
2023/04/13 09:41:27;;;;;;;15.20;2.30;;;;;;;13.10;71.57;100145.06;5031552;28;20026;-78
2023/04/13 09:43:53;;;;;;;15.35;2.67;;;;;;;11.87;77.00;100158.47;5032998;28;20040;-76
2023/04/13 09:46:18;;;;;;;10.68;2.17;;;;;;;11.41;96.52;100150.88;5032849;28;20076;-78
2023/04/13 09:48:44;;;;;;;9.55;2.22;;;;;;;12.09;90.47;100165.91;5031741;28;20030;-77
2023/04/13 09:51:09;;;;;;;15.05;2.35;;;;;;;13.15;78.41;100157.91;5033030;28;20094;-77
2023/04/13 09:53:41;;;;;;;11.73;2.42;;;;;;;13.47;74.21;100165.00;5032833;28;20037;-77
2023/04/13 09:56:06;;;;;;;7.82;2.03;;;;;;;13.28;66.79;100170.72;5032792;28;20036;-75
2023/04/13 09:58:40;;;;;;;11.50;2.15;;;;;;;12.53;70.50;100176.22;5032546;28;20025;-77
2023/04/13 10:01:06;;;;;;;16.73;2.40;;;;;;;12.61;74.89;100177.22;5032935;28;20036;-76
2023/04/13 10:03:33;;;;;;;12.07;1.77;;;;;;;12.56;69.63;100190.25;5032850;28;20422;-75
2023/04/13 10:05:59;;;;;;;14.68;1.83;;;;;;;12.38;76.37;100183.25;5032804;28;20079;-75
2023/04/13 10:08:25;;;;;;;11.05;2.55;;;;;;;12.64;71.91;100199.06;5032881;28;20133;-74
2023/04/13 10:10:51;;;;;;;12.65;2.17;;;;;;;11.99;79.24;100202.53;5032919;28;20171;-74
2023/04/13 10:13:22;;;;;;;12.48;2.40;;;;;;;11.78;81.20;100198.47;5032600;28;20041;-74
2023/04/13 10:15:57;;;;;;;11.60;1.70;;;;;;;11.49;88.24;100203.34;5032613;28;20095;-75
2023/04/13 10:18:29;;;;;;;14.88;2.38;;;;;;;11.23;84.04;100213.06;5033072;28;20087;-76
2023/04/13 10:20:58;;;;;;;14.65;2.38;;;;;;;11.04;87.31;100213.28;5032519;28;20040;-76
2023/04/13 10:23:24;;;;;;;8.88;2.10;;;;;;;11.41;88.73;100228.13;5030901;28;20124;-75
2023/04/13 10:25:50;;;;;;;14.13;2.72;;;;;;;11.37;94.58;100227.59;5032028;28;20036;-74
2023/04/13 10:28:16;;;;;;;9.55;2.08;;;;;;;12.40;86.54;100231.09;5032063;28;20087;-75
2023/04/13 10:30:51;;;;;;;11.05;2.22;;;;;;;12.79;82.86;100239.25;5031794;28;20096;-75
2023/04/13 10:33:17;;;;;;;26.65;2.88;;;;;;;13.27;73.63;100234.00;5031900;28;20072;-76
2023/04/13 10:35:57;;;;;;;11.13;2.33;;;;;;;14.28;67.36;100252.94;5032524;28;20030;-75
2023/04/13 10:38:23;;;;;;;15.88;2.35;;;;;;;13.35;69.97;100274.09;5032131;28;20029;-75
2023/04/13 10:40:49;;;;;;;14.88;2.80;;;;;;;12.17;71.85;100264.56;5031790;28;20033;-76
2023/04/13 10:43:43;;;;;;;12.95;2.80;;;;;;;11.56;81.43;100271.81;5032741;28;20527;-77
2023/04/13 10:46:12;;;;;;;12.20;2.78;;;;;;;11.42;87.36;100267.06;5023378;28;20117;-77
2023/04/13 10:48:40;;;;;;;8.57;2.10;;;;;;;11.60;85.17;100264.38;5031667;28;20335;-76
2023/04/13 10:51:06;;;;;;;19.20;4.30;;;;;;;11.59;87.49;100274.16;5032094;28;20128;-76
2023/04/13 10:53:33;;;;;;;11.25;2.10;;;;;;;12.56;83.75;100286.31;5031977;28;20399;-77
2023/04/13 10:56:03;;;;;;;18.70;2.90;;;;;;;13.68;72.14;100279.31;5030073;28;20424;-75
2023/04/13 10:58:31;;;;;;;12.88;2.47;;;;;;;14.59;63.11;100289.53;5030400;28;20041;-76
2023/04/13 11:00:58;;;;;;;12.35;2.65;;;;;;;13.65;64.79;100290.38;5031270;28;20042;-76
2023/04/13 11:03:27;;;;;;;11.55;2.13;;;;;;;12.52;69.07;100293.78;5031534;28;20173;-75
2023/04/13 11:05:58;;;;;;;12.52;2.70;;;;;;;11.64;75.46;100303.00;5029822;28;20029;-77
2023/04/13 11:08:24;;;;;;;11.90;2.28;;;;;;;12.00;77.61;100305.50;5031745;28;20112;-77
2023/04/13 11:10:54;;;;;;;12.00;2.67;;;;;;;12.73;76.45;100314.66;5031338;28;20100;-76
2023/04/13 11:13:20;;;;;;;12.45;2.38;;;;;;;12.79;70.92;100322.00;5031196;28;20029;-76
2023/04/13 11:15:48;;;;;;;10.85;2.10;;;;;;;12.23;69.44;100316.44;5031266;28;20029;-76
2023/04/13 11:18:24;;;;;;;13.93;2.42;;;;;;;13.03;73.08;100336.34;5031160;28;20066;-76
2023/04/13 11:20:50;;;;;;;8.00;2.22;;;;;;;13.39;66.79;100320.84;5029422;28;20099;-76
2023/04/13 11:23:17;;;;;;;9.68;1.90;;;;;;;13.19;63.53;100327.50;5030707;28;20463;-76
2023/04/13 11:26:07;;;;;;;11.82;2.00;;;;;;;12.94;70.97;100332.84;5030907;28;20187;-76
2023/04/13 11:28:41;;;;;;;8.40;2.00;;;;;;;11.89;72.12;100335.94;5031017;28;20072;-75
2023/04/13 11:31:07;;;;;;;11.07;2.40;;;;;;;11.29;77.04;100342.09;5030674;28;20355;-75